sensor_id;sensor_type;location;lat;lon;timestamp;pressure;altitude;pressure_sealevel;temperature;humidity
2681;BME280;1350;42.134;24.708;2022-09-09T00:00:22;99591.06;;;19.27;100.00
2681;BME280;1350;42.134;24.708;2022-09-09T00:02:55;99592.56;;;19.20;100.00
2681;BME280;1350;42.134;24.708;2022-09-09T00:05:31;99596.44;;;19.07;100.00
2681;BME280;1350;42.134;24.708;2022-09-09T00:08:01;99593.41;;;19.21;100.00
2681;BME280;1350;42.134;24.708;2022-09-09T00:10:33;99594.00;;;19.24;100.00
2681;BME280;1350;42.134;24.708;2022-09-09T00:13:08;99597.72;;;19.33;100.00
2681;BME280;1350;42.134;24.708;2022-09-09T00:15:40;99588.47;;;19.26;100.00
2681;BME280;1350;42.134;24.708;2022-09-09T00:18:17;99587.75;;;19.24;100.00
2681;BME280;1350;42.134;24.708;2022-09-09T00:20:56;99586.16;;;19.12;100.00
2681;BME280;1350;42.134;24.708;2022-09-09T00:23:27;99581.50;;;19.14;100.00
2681;BME280;1350;42.134;24.708;2022-09-09T00:26:02;99589.25;;;19.28;100.00
2681;BME280;1350;42.134;24.708;2022-09-09T00:28:33;99594.47;;;19.09;100.00
2681;BME280;1350;42.134;24.708;2022-09-09T00:31:12;99601.25;;;19.03;100.00
2681;BME280;1350;42.134;24.708;2022-09-09T00:33:40;99609.88;;;19.07;100.00
2681;BME280;1350;42.134;24.708;2022-09-09T00:36:13;99609.19;;;19.05;100.00
2681;BME280;1350;42.134;24.708;2022-09-09T00:38:43;99600.78;;;18.98;100.00
2681;BME280;1350;42.134;24.708;2022-09-09T00:41:17;99604.28;;;18.89;100.00
2681;BME280;1350;42.134;24.708;2022-09-09T00:43:55;99608.53;;;18.92;100.00
2681;BME280;1350;42.134;24.708;2022-09-09T00:46:40;99599.81;;;18.79;100.00
2681;BME280;1350;42.134;24.708;2022-09-09T00:49:17;99596.94;;;18.91;100.00
2681;BME280;1350;42.134;24.708;2022-09-09T00:51:55;99597.69;;;18.82;100.00
2681;BME280;1350;42.134;24.708;2022-09-09T00:54:33;99605.44;;;18.55;100.00
2681;BME280;1350;42.134;24.708;2022-09-09T00:57:13;99604.28;;;18.37;100.00
2681;BME280;1350;42.134;24.708;2022-09-09T00:59:50;99611.13;;;18.30;100.00
2681;BME280;1350;42.134;24.708;2022-09-09T01:02:26;99613.69;;;18.20;100.00
2681;BME280;1350;42.134;24.708;2022-09-09T01:04:54;99615.19;;;18.13;100.00
2681;BME280;1350;42.134;24.708;2022-09-09T01:07:24;99612.91;;;18.09;100.00
2681;BME280;1350;42.134;24.708;2022-09-09T01:09:55;99617.22;;;18.00;100.00
2681;BME280;1350;42.134;24.708;2022-09-09T01:12:34;99607.19;;;17.91;100.00
2681;BME280;1350;42.134;24.708;2022-09-09T01:15:09;99614.56;;;17.78;100.00
2681;BME280;1350;42.134;24.708;2022-09-09T01:17:50;99620.44;;;17.72;100.00
2681;BME280;1350;42.134;24.708;2022-09-09T01:20:23;99613.69;;;17.78;100.00
2681;BME280;1350;42.134;24.708;2022-09-09T01:23:04;99605.63;;;17.89;100.00
2681;BME280;1350;42.134;24.708;2022-09-09T01:26:26;99603.19;;;17.97;100.00
2681;BME280;1350;42.134;24.708;2022-09-09T01:28:53;99607.53;;;18.09;100.00
2681;BME280;1350;42.134;24.708;2022-09-09T01:31:26;99607.16;;;18.13;100.00
2681;BME280;1350;42.134;24.708;2022-09-09T01:33:54;99604.97;;;18.07;100.00
2681;BME280;1350;42.134;24.708;2022-09-09T01:36:28;99603.88;;;18.10;100.00
2681;BME280;1350;42.134;24.708;2022-09-09T01:38:56;99601.41;;;18.18;100.00
2681;BME280;1350;42.134;24.708;2022-09-09T01:41:23;99604.06;;;18.29;100.00
2681;BME280;1350;42.134;24.708;2022-09-09T01:43:53;99598.91;;;18.37;100.00
2681;BME280;1350;42.134;24.708;2022-09-09T01:46:22;99598.53;;;18.41;100.00
2681;BME280;1350;42.134;24.708;2022-09-09T01:48:50;99599.59;;;18.50;100.00
2681;BME280;1350;42.134;24.708;2022-09-09T01:51:17;99601.19;;;18.53;100.00
2681;BME280;1350;42.134;24.708;2022-09-09T01:53:45;99601.06;;;18.54;100.00
2681;BME280;1350;42.134;24.708;2022-09-09T01:56:21;99603.41;;;18.48;100.00
2681;BME280;1350;42.134;24.708;2022-09-09T01:59:05;99600.09;;;18.44;100.00
2681;BME280;1350;42.134;24.708;2022-09-09T02:01:46;99608.78;;;18.48;100.00
2681;BME280;1350;42.134;24.708;2022-09-09T02:04:27;99609.28;;;18.41;100.00
2681;BME280;1350;42.134;24.708;2022-09-09T02:06:57;99599.25;;;18.43;100.00
2681;BME280;1350;42.134;24.708;2022-09-09T02:09:26;99599.53;;;18.29;100.00
2681;BME280;1350;42.134;24.708;2022-09-09T02:12:00;99610.69;;;18.14;100.00
2681;BME280;1350;42.134;24.708;2022-09-09T02:14:32;99608.81;;;17.94;100.00
2681;BME280;1350;42.134;24.708;2022-09-09T02:17:03;99593.53;;;17.94;100.00
2681;BME280;1350;42.134;24.708;2022-09-09T02:19:37;99587.56;;;18.02;100.00
2681;BME280;1350;42.134;24.708;2022-09-09T02:22:05;99589.59;;;18.09;100.00
2681;BME280;1350;42.134;24.708;2022-09-09T02:24:36;99587.31;;;18.05;100.00
2681;BME280;1350;42.134;24.708;2022-09-09T02:27:05;99586.94;;;18.09;100.00
2681;BME280;1350;42.134;24.708;2022-09-09T02:29:38;99585.78;;;18.23;100.00
2681;BME280;1350;42.134;24.708;2022-09-09T02:32:10;99586.56;;;18.34;100.00
2681;BME280;1350;42.134;24.708;2022-09-09T02:34:42;99587.16;;;18.49;100.00
2681;BME280;1350;42.134;24.708;2022-09-09T02:37:10;99585.25;;;18.40;100.00
2681;BME280;1350;42.134;24.708;2022-09-09T02:39:38;99600.84;;;18.46;100.00
2681;BME280;1350;42.134;24.708;2022-09-09T02:42:05;99602.66;;;18.34;100.00
2681;BME280;1350;42.134;24.708;2022-09-09T02:44:32;99599.84;;;18.36;100.00
2681;BME280;1350;42.134;24.708;2022-09-09T02:47:16;99601.72;;;18.47;100.00
2681;BME280;1350;42.134;24.708;2022-09-09T02:49:57;99598.25;;;18.56;100.00
2681;BME280;1350;42.134;24.708;2022-09-09T02:52:33;99601.38;;;18.29;100.00
2681;BME280;1350;42.134;24.708;2022-09-09T02:55:08;99606.84;;;18.38;100.00
2681;BME280;1350;42.134;24.708;2022-09-09T02:57:39;99610.72;;;18.34;100.00
2681;BME280;1350;42.134;24.708;2022-09-09T03:00:07;99606.94;;;18.37;100.00
2681;BME280;1350;42.134;24.708;2022-09-09T03:02:36;99605.22;;;18.47;100.00
2681;BME280;1350;42.134;24.708;2022-09-09T03:05:04;99610.31;;;18.18;100.00
2681;BME280;1350;42.134;24.708;2022-09-09T03:07:31;99610.53;;;18.26;100.00
2681;BME280;1350;42.134;24.708;2022-09-09T03:09:58;99605.75;;;18.30;100.00
2681;BME280;1350;42.134;24.708;2022-09-09T03:12:25;99598.41;;;18.43;100.00
2681;BME280;1350;42.134;24.708;2022-09-09T03:14:52;99606.84;;;18.38;100.00
2681;BME280;1350;42.134;24.708;2022-09-09T03:17:19;99605.00;;;18.39;100.00
2681;BME280;1350;42.134;24.708;2022-09-09T03:19:47;99602.94;;;18.31;100.00
2681;BME280;1350;42.134;24.708;2022-09-09T03:22:15;99604.03;;;18.40;100.00
2681;BME280;1350;42.134;24.708;2022-09-09T03:24:42;99617.94;;;18.34;100.00
2681;BME280;1350;42.134;24.708;2022-09-09T03:27:09;99626.09;;;18.43;100.00
2681;BME280;1350;42.134;24.708;2022-09-09T03:29:36;99627.47;;;18.38;100.00
2681;BME280;1350;42.134;24.708;2022-09-09T03:32:02;99631.25;;;18.35;100.00
2681;BME280;1350;42.134;24.708;2022-09-09T03:34:29;99637.22;;;18.39;100.00
2681;BME280;1350;42.134;24.708;2022-09-09T03:36:58;99637.25;;;18.28;100.00
2681;BME280;1350;42.134;24.708;2022-09-09T03:39:24;99635.53;;;18.27;100.00
2681;BME280;1350;42.134;24.708;2022-09-09T03:41:51;99632.16;;;18.14;100.00
2681;BME280;1350;42.134;24.708;2022-09-09T03:44:18;99638.63;;;18.11;100.00
2681;BME280;1350;42.134;24.708;2022-09-09T03:46:45;99635.69;;;18.14;100.00
2681;BME280;1350;42.134;24.708;2022-09-09T03:49:11;99625.19;;;18.22;100.00
2681;BME280;1350;42.134;24.708;2022-09-09T03:51:38;99619.03;;;18.31;100.00
2681;BME280;1350;42.134;24.708;2022-09-09T03:54:07;99633.72;;;18.27;100.00
2681;BME280;1350;42.134;24.708;2022-09-09T03:56:36;99636.75;;;18.34;100.00
2681;BME280;1350;42.134;24.708;2022-09-09T03:59:03;99629.19;;;18.28;100.00
2681;BME280;1350;42.134;24.708;2022-09-09T04:07:44;99635.53;;;18.27;100.00
2681;BME280;1350;42.134;24.708;2022-09-09T04:10:12;99632.22;;;18.34;100.00
2681;BME280;1350;42.134;24.708;2022-09-09T04:12:39;99623.63;;;18.52;100.00
2681;BME280;1350;42.134;24.708;2022-09-09T04:15:07;99627.13;;;19.25;100.00
2681;BME280;1350;42.134;24.708;2022-09-09T04:17:34;99625.09;;;19.68;100.00
2681;BME280;1350;42.134;24.708;2022-09-09T04:20:02;99625.94;;;19.18;100.00
2681;BME280;1350;42.134;24.708;2022-09-09T04:22:28;99616.69;;;19.31;100.00
2681;BME280;1350;42.134;24.708;2022-09-09T04:24:55;99615.31;;;19.16;100.00
2681;BME280;1350;42.134;24.708;2022-09-09T04:27:23;99612.94;;;19.23;100.00
2681;BME280;1350;42.134;24.708;2022-09-09T04:29:50;99622.22;;;19.30;100.00
2681;BME280;1350;42.134;24.708;2022-09-09T04:32:17;99627.69;;;19.49;100.00
2681;BME280;1350;42.134;24.708;2022-09-09T04:34:43;99630.63;;;19.76;100.00
2681;BME280;1350;42.134;24.708;2022-09-09T04:37:11;99632.25;;;19.88;100.00
2681;BME280;1350;42.134;24.708;2022-09-09T04:39:38;99631.69;;;20.03;100.00
2681;BME280;1350;42.134;24.708;2022-09-09T04:42:05;99627.25;;;20.33;100.00
2681;BME280;1350;42.134;24.708;2022-09-09T04:44:33;99634.06;;;20.65;100.00
2681;BME280;1350;42.134;24.708;2022-09-09T04:47:00;99648.09;;;20.78;100.00
2681;BME280;1350;42.134;24.708;2022-09-09T04:49:27;99646.66;;;20.93;100.00
2681;BME280;1350;42.134;24.708;2022-09-09T04:51:56;99649.81;;;20.98;100.00
2681;BME280;1350;42.134;24.708;2022-09-09T04:54:23;99656.81;;;21.47;100.00
2681;BME280;1350;42.134;24.708;2022-09-09T04:56:50;99658.84;;;21.72;100.00
2681;BME280;1350;42.134;24.708;2022-09-09T04:59:17;99658.59;;;22.02;100.00
2681;BME280;1350;42.134;24.708;2022-09-09T05:01:45;99667.31;;;22.41;97.05
2681;BME280;1350;42.134;24.708;2022-09-09T05:04:12;99654.69;;;22.59;94.50
2681;BME280;1350;42.134;24.708;2022-09-09T05:06:39;99655.91;;;22.82;93.25
2681;BME280;1350;42.134;24.708;2022-09-09T05:09:06;99649.31;;;23.02;90.46
2681;BME280;1350;42.134;24.708;2022-09-09T05:11:33;99655.25;;;23.23;88.84
2681;BME280;1350;42.134;24.708;2022-09-09T05:14:02;99662.06;;;23.53;87.53
2681;BME280;1350;42.134;24.708;2022-09-09T05:16:29;99654.69;;;23.63;86.27
2681;BME280;1350;42.134;24.708;2022-09-09T05:18:58;99646.25;;;23.99;83.24
2681;BME280;1350;42.134;24.708;2022-09-09T05:21:25;99650.28;;;24.45;80.79
2681;BME280;1350;42.134;24.708;2022-09-09T05:23:53;99645.97;;;24.68;78.75
2681;BME280;1350;42.134;24.708;2022-09-09T05:26:21;99644.09;;;24.92;77.16
2681;BME280;1350;42.134;24.708;2022-09-09T05:28:49;99646.16;;;25.23;74.14
2681;BME280;1350;42.134;24.708;2022-09-09T05:31:17;99641.56;;;25.39;73.01
2681;BME280;1350;42.134;24.708;2022-09-09T05:33:45;99644.56;;;25.60;71.28
2681;BME280;1350;42.134;24.708;2022-09-09T05:36:16;99652.69;;;25.76;68.95
2681;BME280;1350;42.134;24.708;2022-09-09T05:38:43;99645.16;;;25.86;67.77
2681;BME280;1350;42.134;24.708;2022-09-09T05:41:11;99652.41;;;26.10;66.50
2681;BME280;1350;42.134;24.708;2022-09-09T05:43:38;99659.41;;;26.43;64.75
2681;BME280;1350;42.134;24.708;2022-09-09T05:46:06;99655.22;;;26.86;63.48
2681;BME280;1350;42.134;24.708;2022-09-09T05:48:35;99650.78;;;27.07;61.74
2681;BME280;1350;42.134;24.708;2022-09-09T05:51:04;99644.34;;;27.45;59.89
2681;BME280;1350;42.134;24.708;2022-09-09T05:53:33;99638.34;;;27.79;58.12
2681;BME280;1350;42.134;24.708;2022-09-09T05:56:01;99647.16;;;27.66;57.05
2681;BME280;1350;42.134;24.708;2022-09-09T05:58:30;99653.63;;;27.36;57.38
2681;BME280;1350;42.134;24.708;2022-09-09T06:01:04;99654.19;;;27.32;58.27
2681;BME280;1350;42.134;24.708;2022-09-09T06:03:32;99644.06;;;27.69;57.37
2681;BME280;1350;42.134;24.708;2022-09-09T06:06:00;99638.41;;;27.71;56.46
2681;BME280;1350;42.134;24.708;2022-09-09T06:08:27;99623.50;;;27.96;56.45
2681;BME280;1350;42.134;24.708;2022-09-09T06:11:01;99621.78;;;27.80;55.94
2681;BME280;1350;42.134;24.708;2022-09-09T06:13:28;99623.59;;;28.02;55.77
2681;BME280;1350;42.134;24.708;2022-09-09T06:15:55;99638.75;;;28.41;55.18
2681;BME280;1350;42.134;24.708;2022-09-09T06:18:22;99624.47;;;28.53;53.99
2681;BME280;1350;42.134;24.708;2022-09-09T06:20:59;99626.41;;;28.80;53.10
2681;BME280;1350;42.134;24.708;2022-09-09T06:23:27;99628.88;;;28.54;53.70
2681;BME280;1350;42.134;24.708;2022-09-09T06:26:03;99621.69;;;28.89;52.83
2681;BME280;1350;42.134;24.708;2022-09-09T06:28:30;99617.97;;;29.17;51.94
2681;BME280;1350;42.134;24.708;2022-09-09T06:30:58;99628.06;;;29.44;51.46
2681;BME280;1350;42.134;24.708;2022-09-09T06:33:25;99636.06;;;29.74;50.80
2681;BME280;1350;42.134;24.708;2022-09-09T06:35:53;99634.09;;;29.95;49.85
2681;BME280;1350;42.134;24.708;2022-09-09T06:38:22;99629.78;;;30.14;49.49
2681;BME280;1350;42.134;24.708;2022-09-09T06:40:52;99643.22;;;30.56;48.28
2681;BME280;1350;42.134;24.708;2022-09-09T06:43:22;99642.06;;;30.91;47.25
2681;BME280;1350;42.134;24.708;2022-09-09T06:45:55;99642.66;;;30.20;47.54
2681;BME280;1350;42.134;24.708;2022-09-09T06:48:23;99650.31;;;30.37;47.77
2681;BME280;1350;42.134;24.708;2022-09-09T06:50:51;99651.03;;;30.65;47.16
2681;BME280;1350;42.134;24.708;2022-09-09T06:53:19;99646.72;;;31.03;46.70
2681;BME280;1350;42.134;24.708;2022-09-09T06:55:46;99645.59;;;30.72;46.63
2681;BME280;1350;42.134;24.708;2022-09-09T06:58:13;99648.81;;;31.08;46.28
2681;BME280;1350;42.134;24.708;2022-09-09T07:00:41;99649.50;;;31.43;45.92
2681;BME280;1350;42.134;24.708;2022-09-09T07:03:09;99640.19;;;31.70;45.27
2681;BME280;1350;42.134;24.708;2022-09-09T07:05:36;99636.78;;;31.81;44.53
2681;BME280;1350;42.134;24.708;2022-09-09T07:08:03;99635.94;;;31.74;44.69
2681;BME280;1350;42.134;24.708;2022-09-09T07:10:30;99635.97;;;31.67;44.31
2681;BME280;1350;42.134;24.708;2022-09-09T07:12:59;99622.06;;;31.62;44.24
2681;BME280;1350;42.134;24.708;2022-09-09T07:15:26;99634.31;;;31.47;44.85
2681;BME280;1350;42.134;24.708;2022-09-09T07:17:55;99636.19;;;31.46;44.36
2681;BME280;1350;42.134;24.708;2022-09-09T07:20:21;99641.88;;;31.84;44.20
2681;BME280;1350;42.134;24.708;2022-09-09T07:22:48;99637.72;;;32.32;43.40
2681;BME280;1350;42.134;24.708;2022-09-09T07:25:15;99639.75;;;31.79;43.56
2681;BME280;1350;42.134;24.708;2022-09-09T07:27:43;99637.19;;;32.04;43.58
2681;BME280;1350;42.134;24.708;2022-09-09T07:30:11;99641.34;;;32.13;43.47
2681;BME280;1350;42.134;24.708;2022-09-09T07:32:37;99641.50;;;32.37;42.99
2681;BME280;1350;42.134;24.708;2022-09-09T07:35:07;99632.03;;;32.71;42.53
2681;BME280;1350;42.134;24.708;2022-09-09T07:37:36;99630.03;;;31.90;43.36
2681;BME280;1350;42.134;24.708;2022-09-09T07:40:03;99636.00;;;31.35;44.62
2681;BME280;1350;42.134;24.708;2022-09-09T07:42:31;99629.88;;;31.52;44.97
2681;BME280;1350;42.134;24.708;2022-09-09T07:44:57;99627.47;;;31.82;43.89
2681;BME280;1350;42.134;24.708;2022-09-09T07:47:24;99626.63;;;32.01;45.08
2681;BME280;1350;42.134;24.708;2022-09-09T07:49:51;99623.50;;;32.41;43.92
2681;BME280;1350;42.134;24.708;2022-09-09T07:52:19;99618.69;;;32.37;42.70
2681;BME280;1350;42.134;24.708;2022-09-09T07:54:46;99622.44;;;31.85;43.21
2681;BME280;1350;42.134;24.708;2022-09-09T07:57:13;99618.81;;;32.55;43.36
2681;BME280;1350;42.134;24.708;2022-09-09T07:59:40;99618.28;;;32.27;42.29
2681;BME280;1350;42.134;24.708;2022-09-09T08:02:08;99619.75;;;32.29;43.69
2681;BME280;1350;42.134;24.708;2022-09-09T08:04:36;99610.94;;;32.21;44.54
2681;BME280;1350;42.134;24.708;2022-09-09T08:07:03;99605.88;;;32.62;41.62
2681;BME280;1350;42.134;24.708;2022-09-09T08:09:31;99605.63;;;32.70;42.02
2681;BME280;1350;42.134;24.708;2022-09-09T08:11:59;99607.66;;;32.81;44.49
2681;BME280;1350;42.134;24.708;2022-09-09T08:14:26;99607.06;;;33.10;42.27
2681;BME280;1350;42.134;24.708;2022-09-09T08:16:53;99609.84;;;33.28;43.54
2681;BME280;1350;42.134;24.708;2022-09-09T08:19:20;99608.28;;;33.14;42.06
2681;BME280;1350;42.134;24.708;2022-09-09T08:21:46;99607.81;;;32.86;43.70
2681;BME280;1350;42.134;24.708;2022-09-09T08:24:14;99606.53;;;32.95;43.53
2681;BME280;1350;42.134;24.708;2022-09-09T08:26:44;99605.28;;;33.16;41.44
2681;BME280;1350;42.134;24.708;2022-09-09T08:29:13;99598.06;;;32.59;43.25
2681;BME280;1350;42.134;24.708;2022-09-09T08:31:42;99581.06;;;32.44;49.69
2681;BME280;1350;42.134;24.708;2022-09-09T08:34:09;99588.44;;;32.43;45.05
2681;BME280;1350;42.134;24.708;2022-09-09T08:36:37;99597.53;;;31.87;44.36
2681;BME280;1350;42.134;24.708;2022-09-09T08:39:06;99590.19;;;32.31;46.50
2681;BME280;1350;42.134;24.708;2022-09-09T08:44:48;99587.41;;;31.68;44.70
2681;BME280;1350;42.134;24.708;2022-09-09T08:47:28;99585.22;;;32.09;44.15
2681;BME280;1350;42.134;24.708;2022-09-09T08:50:13;99587.25;;;31.24;44.31
2681;BME280;1350;42.134;24.708;2022-09-09T08:52:50;99575.69;;;31.08;44.41
2681;BME280;1350;42.134;24.708;2022-09-09T08:55:24;99577.38;;;31.42;45.23
2681;BME280;1350;42.134;24.708;2022-09-09T08:57:55;99576.25;;;32.26;45.34
2681;BME280;1350;42.134;24.708;2022-09-09T09:00:22;99583.47;;;30.98;44.97
2681;BME280;1350;42.134;24.708;2022-09-09T09:03:03;99580.13;;;30.17;46.04
2681;BME280;1350;42.134;24.708;2022-09-09T09:05:36;99582.19;;;30.15;47.13
2681;BME280;1350;42.134;24.708;2022-09-09T09:08:14;99570.84;;;30.97;46.09
2681;BME280;1350;42.134;24.708;2022-09-09T09:10:46;99568.19;;;31.81;43.74
2681;BME280;1350;42.134;24.708;2022-09-09T09:13:20;99560.69;;;32.58;43.77
2681;BME280;1350;42.134;24.708;2022-09-09T09:15:53;99554.34;;;32.57;42.36
2681;BME280;1350;42.134;24.708;2022-09-09T09:18:22;99558.28;;;32.37;44.14
2681;BME280;1350;42.134;24.708;2022-09-09T09:20:54;99558.16;;;32.12;44.39
2681;BME280;1350;42.134;24.708;2022-09-09T09:23:37;99554.50;;;31.68;45.53
2681;BME280;1350;42.134;24.708;2022-09-09T09:26:08;99536.84;;;30.53;45.72
2681;BME280;1350;42.134;24.708;2022-09-09T09:28:38;99536.03;;;31.04;48.29
2681;BME280;1350;42.134;24.708;2022-09-09T09:31:09;99539.19;;;31.08;48.09
2681;BME280;1350;42.134;24.708;2022-09-09T09:33:45;99536.16;;;31.62;47.17
2681;BME280;1350;42.134;24.708;2022-09-09T09:36:15;99545.31;;;30.64;48.37
2681;BME280;1350;42.134;24.708;2022-09-09T09:38:52;99532.78;;;30.29;48.84
2681;BME280;1350;42.134;24.708;2022-09-09T09:41:32;99520.72;;;30.11;50.65
2681;BME280;1350;42.134;24.708;2022-09-09T09:44:02;99527.44;;;29.27;51.30
2681;BME280;1350;42.134;24.708;2022-09-09T09:46:30;99519.72;;;28.82;52.41
2681;BME280;1350;42.134;24.708;2022-09-09T09:48:58;99522.81;;;28.72;53.59
2681;BME280;1350;42.134;24.708;2022-09-09T09:51:26;99519.34;;;29.06;54.41
2681;BME280;1350;42.134;24.708;2022-09-09T09:54:03;99509.34;;;28.71;56.15
2681;BME280;1350;42.134;24.708;2022-09-09T09:56:35;99499.81;;;29.15;54.78
2681;BME280;1350;42.134;24.708;2022-09-09T09:59:04;99501.75;;;29.55;53.88
2681;BME280;1350;42.134;24.708;2022-09-09T10:01:32;99500.19;;;29.74;52.77
2681;BME280;1350;42.134;24.708;2022-09-09T10:04:02;99505.00;;;29.66;53.83
2681;BME280;1350;42.134;24.708;2022-09-09T10:06:40;99501.31;;;29.52;53.09
2681;BME280;1350;42.134;24.708;2022-09-09T10:09:20;99491.00;;;29.47;52.29
2681;BME280;1350;42.134;24.708;2022-09-09T10:11:55;99486.72;;;29.73;53.14
2681;BME280;1350;42.134;24.708;2022-09-09T10:14:30;99481.78;;;29.55;52.94
2681;BME280;1350;42.134;24.708;2022-09-09T10:17:11;99484.69;;;29.47;52.28
2681;BME280;1350;42.134;24.708;2022-09-09T10:19:50;99491.66;;;29.56;52.49
2681;BME280;1350;42.134;24.708;2022-09-09T10:22:26;99482.06;;;29.67;52.44
2681;BME280;1350;42.134;24.708;2022-09-09T10:25:15;99484.03;;;29.45;53.46
2681;BME280;1350;42.134;24.708;2022-09-09T10:27:59;99483.41;;;29.43;53.09
2681;BME280;1350;42.134;24.708;2022-09-09T10:30:40;99480.88;;;29.41;53.31
2681;BME280;1350;42.134;24.708;2022-09-09T10:33:20;99482.72;;;29.34;53.74
2681;BME280;1350;42.134;24.708;2022-09-09T10:35:52;99481.84;;;29.27;54.57
2681;BME280;1350;42.134;24.708;2022-09-09T10:38:27;99478.31;;;29.40;53.75
2681;BME280;1350;42.134;24.708;2022-09-09T10:41:09;99478.03;;;29.63;54.13
2681;BME280;1350;42.134;24.708;2022-09-09T10:44:13;99468.88;;;29.90;53.12
2681;BME280;1350;42.134;24.708;2022-09-09T10:47:00;99460.13;;;29.60;54.23
2681;BME280;1350;42.134;24.708;2022-09-09T10:49:48;99473.31;;;29.43;54.84
2681;BME280;1350;42.134;24.708;2022-09-09T10:52:24;99463.69;;;29.54;53.28
2681;BME280;1350;42.134;24.708;2022-09-09T10:54:56;99460.44;;;29.85;53.13
2681;BME280;1350;42.134;24.708;2022-09-09T10:57:29;99465.94;;;29.91;51.31
2681;BME280;1350;42.134;24.708;2022-09-09T11:00:02;99461.38;;;30.11;52.35
2681;BME280;1350;42.134;24.708;2022-09-09T11:02:33;99449.41;;;30.12;52.82
2681;BME280;1350;42.134;24.708;2022-09-09T11:05:03;99449.44;;;30.45;52.76
2681;BME280;1350;42.134;24.708;2022-09-09T11:07:35;99448.59;;;30.83;51.59
2681;BME280;1350;42.134;24.708;2022-09-09T11:10:16;99440.41;;;30.77;51.31
2681;BME280;1350;42.134;24.708;2022-09-09T11:12:46;99445.84;;;30.31;52.72
2681;BME280;1350;42.134;24.708;2022-09-09T11:15:20;99440.50;;;29.84;52.31
2681;BME280;1350;42.134;24.708;2022-09-09T11:17:55;99440.41;;;29.65;52.82
2681;BME280;1350;42.134;24.708;2022-09-09T11:20:23;99431.84;;;29.81;52.52
2681;BME280;1350;42.134;24.708;2022-09-09T11:22:53;99423.69;;;29.94;53.23
2681;BME280;1350;42.134;24.708;2022-09-09T11:25:25;99419.75;;;30.29;53.65
2681;BME280;1350;42.134;24.708;2022-09-09T11:28:11;99413.84;;;30.45;51.88
2681;BME280;1350;42.134;24.708;2022-09-09T11:30:53;99409.63;;;30.68;51.90
2681;BME280;1350;42.134;24.708;2022-09-09T11:33:38;99416.38;;;30.66;50.78
2681;BME280;1350;42.134;24.708;2022-09-09T11:36:35;99417.22;;;30.53;49.85
2681;BME280;1350;42.134;24.708;2022-09-09T11:39:19;99413.00;;;30.70;50.06
2681;BME280;1350;42.134;24.708;2022-09-09T11:41:49;99416.34;;;30.72;50.35
2681;BME280;1350;42.134;24.708;2022-09-09T11:44:20;99413.00;;;30.64;50.03
2681;BME280;1350;42.134;24.708;2022-09-09T11:46:51;99410.50;;;30.36;50.45
2681;BME280;1350;42.134;24.708;2022-09-09T11:49:27;99407.94;;;30.48;49.96
2681;BME280;1350;42.134;24.708;2022-09-09T11:51:56;99416.81;;;30.63;50.60
2681;BME280;1350;42.134;24.708;2022-09-09T11:54:29;99396.81;;;30.43;50.15
2681;BME280;1350;42.134;24.708;2022-09-09T11:56:56;99394.28;;;30.35;51.89
2681;BME280;1350;42.134;24.708;2022-09-09T11:59:24;99393.19;;;30.62;51.03
2681;BME280;1350;42.134;24.708;2022-09-09T12:01:55;99384.38;;;30.60;50.23
2681;BME280;1350;42.134;24.708;2022-09-09T12:04:35;99378.25;;;30.51;50.95
2681;BME280;1350;42.134;24.708;2022-09-09T12:07:24;99375.28;;;30.72;51.89
2681;BME280;1350;42.134;24.708;2022-09-09T12:09:56;99383.00;;;31.08;49.97
2681;BME280;1350;42.134;24.708;2022-09-09T12:12:28;99371.44;;;31.06;49.26
2681;BME280;1350;42.134;24.708;2022-09-09T12:15:01;99376.94;;;30.99;50.45
2681;BME280;1350;42.134;24.708;2022-09-09T12:17:30;99370.16;;;31.15;48.83
2681;BME280;1350;42.134;24.708;2022-09-09T12:20:06;99369.59;;;30.87;48.98
2681;BME280;1350;42.134;24.708;2022-09-09T12:22:44;99362.69;;;30.52;50.43
2681;BME280;1350;42.134;24.708;2022-09-09T12:25:20;99362.91;;;30.44;50.92
2681;BME280;1350;42.134;24.708;2022-09-09T12:28:01;99362.22;;;30.09;51.56
2681;BME280;1350;42.134;24.708;2022-09-09T12:30:34;99359.50;;;29.90;51.89
2681;BME280;1350;42.134;24.708;2022-09-09T12:33:02;99347.28;;;29.99;51.02
2681;BME280;1350;42.134;24.708;2022-09-09T12:35:36;99353.63;;;30.12;51.44
2681;BME280;1350;42.134;24.708;2022-09-09T12:38:05;99344.16;;;30.15;51.76
2681;BME280;1350;42.134;24.708;2022-09-09T12:40:36;99351.53;;;30.21;52.00
2681;BME280;1350;42.134;24.708;2022-09-09T12:43:17;99345.88;;;30.22;51.24
2681;BME280;1350;42.134;24.708;2022-09-09T12:45:44;99341.63;;;30.33;51.33
2681;BME280;1350;42.134;24.708;2022-09-09T12:48:11;99335.97;;;30.21;51.27
2681;BME280;1350;42.134;24.708;2022-09-09T12:50:46;99328.81;;;30.40;50.70
2681;BME280;1350;42.134;24.708;2022-09-09T12:53:19;99331.28;;;30.48;50.66
2681;BME280;1350;42.134;24.708;2022-09-09T12:55:50;99336.97;;;30.46;51.66
2681;BME280;1350;42.134;24.708;2022-09-09T12:58:18;99332.34;;;30.53;51.85
2681;BME280;1350;42.134;24.708;2022-09-09T13:00:49;99328.38;;;30.43;51.69
2681;BME280;1350;42.134;24.708;2022-09-09T13:03:18;99324.34;;;30.58;50.71
2681;BME280;1350;42.134;24.708;2022-09-09T13:05:50;99320.28;;;30.74;50.71
2681;BME280;1350;42.134;24.708;2022-09-09T13:08:17;99323.25;;;30.79;51.24
2681;BME280;1350;42.134;24.708;2022-09-09T13:10:49;99319.44;;;30.86;50.67
2681;BME280;1350;42.134;24.708;2022-09-09T13:13:23;99318.63;;;30.79;50.62
2681;BME280;1350;42.134;24.708;2022-09-09T13:15:52;99316.25;;;30.89;50.13
2681;BME280;1350;42.134;24.708;2022-09-09T13:18:22;99306.34;;;30.95;50.40
2681;BME280;1350;42.134;24.708;2022-09-09T13:20:51;99299.69;;;30.78;50.45
2681;BME280;1350;42.134;24.708;2022-09-09T13:23:19;99303.91;;;30.61;52.14
2681;BME280;1350;42.134;24.708;2022-09-09T13:25:55;99302.28;;;30.27;52.86
2681;BME280;1350;42.134;24.708;2022-09-09T13:28:23;99309.00;;;30.18;52.28
2681;BME280;1350;42.134;24.708;2022-09-09T13:30:57;99311.97;;;30.17;51.74
2681;BME280;1350;42.134;24.708;2022-09-09T13:33:37;99302.69;;;29.85;52.85
2681;BME280;1350;42.134;24.708;2022-09-09T13:36:08;99289.22;;;29.84;53.38
2681;BME280;1350;42.134;24.708;2022-09-09T13:38:37;99288.16;;;29.85;53.27